Taidong, Taiwan
Current Conditions -  °F | °C
As of 1:00 AM on Sunday 26 Oct 2014 (Local Time) from RCKH Reporting Station
Scattered Clouds Scattered Clouds  
Wind Chill: 79°   Ceiling: Unl
Heat Index: 82°   Visibility: 6mi
Dew Point: 72°   Wind: 2mph
Humidity: 78%   Direction: NA
Pressure: 30"   Gusts: NA
Location:  22.75°N, 121.15°E
Report Text: RCKH 251700Z VRB02KT 9999 FEW015 SCT070 26/22 Q1016 NOSIGRMK A3003
Loading
Personal Weather Stations






























Interactive Weather Map
Tropical Storm Tracking
New forecast layout! Learn more

10-Day Weather Forecast

Advertisements
Track Severe Weather on mobile